Time;durP1;ratioP1;P1;durP2;ratioP2;P2;SDS_P1;SDS_P2;PMS_P1;PMS_P2;Temp;Humidity;BMP_temperature;BMP_pressure;BME280_temperature;BME280_humidity;BME280_pressure;Samples;Min_cycle;Max_cycle;Signal;HPM_P1;HPM_P2
2022/03/15 00:00:40;;;;;;;20.70;11.50;;;;;;;5.55;45.42;101534.38;4988482;28;106369;-76
2022/03/15 00:03:05;;;;;;;17.80;11.65;;;;;;;5.44;45.80;101532.47;4989097;28;106315;-76
2022/03/15 00:05:31;;;;;;;20.05;10.95;;;;;;;5.38;46.06;101531.06;4988963;28;106107;-76
2022/03/15 00:07:57;;;;;;;18.58;12.90;;;;;;;5.33;46.06;101532.34;4990017;28;105959;-77
2022/03/15 00:10:22;;;;;;;21.75;12.63;;;;;;;5.30;46.60;101530.75;4988002;28;106354;-77
2022/03/15 00:12:48;;;;;;;22.83;12.52;;;;;;;5.29;46.76;101529.06;4988864;28;106122;-78
2022/03/15 00:15:13;;;;;;;25.50;12.43;;;;;;;5.30;46.96;101522.81;4989113;28;106103;-78
2022/03/15 00:17:41;;;;;;;24.25;12.45;;;;;;;5.38;47.20;101523.16;4989571;28;105874;-77
2022/03/15 00:20:09;;;;;;;22.25;12.52;;;;;;;5.48;47.14;101526.03;4989148;28;106196;-77
2022/03/15 00:22:35;;;;;;;20.90;11.80;;;;;;;5.57;47.13;101520.09;4988572;28;105866;-76
2022/03/15 00:25:05;;;;;;;20.67;12.77;;;;;;;5.65;47.45;101516.94;4988860;28;106148;-77
2022/03/15 00:27:32;;;;;;;22.23;12.45;;;;;;;5.71;47.24;101519.16;4989600;28;105882;-75
2022/03/15 00:29:57;;;;;;;19.45;11.90;;;;;;;5.78;47.07;101524.03;4988956;28;106102;-75
2022/03/15 00:32:23;;;;;;;22.92;12.82;;;;;;;5.83;47.22;101528.03;4988896;28;107103;-75
2022/03/15 00:34:49;;;;;;;20.95;12.80;;;;;;;5.84;47.17;101528.91;4988760;28;105993;-76
2022/03/15 00:37:14;;;;;;;28.92;12.23;;;;;;;5.85;47.39;101528.78;4988779;28;106097;-76
2022/03/15 00:39:41;;;;;;;23.85;13.65;;;;;;;5.88;47.42;101544.44;4988867;28;106130;-76
2022/03/15 00:42:07;;;;;;;31.75;15.10;;;;;;;5.95;47.64;101542.22;4988545;28;105936;-77
2022/03/15 00:44:32;;;;;;;55.75;22.55;;;;;;;6.02;47.50;101546.16;4988524;28;106348;-76
2022/03/15 00:46:57;;;;;;;22.98;13.68;;;;;;;6.04;47.81;101548.69;4989315;28;106487;-77
2022/03/15 00:49:23;;;;;;;21.55;13.27;;;;;;;6.03;47.70;101553.13;4988714;28;106340;-77
2022/03/15 00:51:49;;;;;;;20.77;13.65;;;;;;;5.98;47.80;101549.97;4988441;28;105814;-76
2022/03/15 00:54:14;;;;;;;23.75;13.88;;;;;;;5.96;47.89;101550.97;4988347;28;105861;-75
2022/03/15 00:56:40;;;;;;;21.38;13.13;;;;;;;5.95;48.10;101546.66;4989108;28;105897;-75
2022/03/15 00:59:05;;;;;;;25.45;13.68;;;;;;;5.97;48.43;101550.88;4988652;28;106228;-75
2022/03/15 01:01:31;;;;;;;19.42;13.43;;;;;;;6.01;48.20;101547.09;4988036;28;105943;-76
2022/03/15 01:03:57;;;;;;;22.70;13.77;;;;;;;6.04;48.20;101538.97;4988204;28;106364;-75
2022/03/15 01:06:22;;;;;;;22.02;12.63;;;;;;;6.08;48.47;101545.72;4988605;28;106926;-74
2022/03/15 01:08:48;;;;;;;18.73;12.63;;;;;;;6.11;48.53;101544.69;4988469;28;106208;-76
2022/03/15 01:11:13;;;;;;;22.75;13.25;;;;;;;6.14;48.32;101533.00;4987339;28;122241;-76
2022/03/15 01:13:38;;;;;;;19.90;12.57;;;;;;;6.15;48.48;101535.56;4988224;28;106192;-76
2022/03/15 01:16:04;;;;;;;21.98;13.60;;;;;;;6.17;48.50;101548.69;4988755;28;105928;-76
2022/03/15 01:18:30;;;;;;;24.52;13.50;;;;;;;6.21;48.85;101550.16;4988291;28;106044;-75
2022/03/15 01:20:55;;;;;;;20.85;12.57;;;;;;;6.21;48.54;101548.34;4987874;28;107794;-77
2022/03/15 01:23:21;;;;;;;19.20;12.60;;;;;;;6.24;48.71;101547.28;4988090;28;106409;-75
2022/03/15 01:25:47;;;;;;;22.42;12.13;;;;;;;6.26;48.60;101543.59;4988538;28;105980;-77
2022/03/15 01:28:14;;;;;;;20.35;12.02;;;;;;;6.28;49.04;101545.28;4988257;28;105814;-75
2022/03/15 01:30:39;;;;;;;20.58;12.23;;;;;;;6.29;49.06;101544.31;4987892;28;105829;-75
2022/03/15 01:33:05;;;;;;;23.30;14.98;;;;;;;6.32;48.94;101547.59;4987693;28;106028;-75
2022/03/15 01:35:31;;;;;;;17.02;11.23;;;;;;;6.32;49.09;101544.94;4988656;28;106354;-75
2022/03/15 01:37:56;;;;;;;18.30;11.68;;;;;;;6.29;49.09;101553.09;4987503;28;106141;-75
2022/03/15 01:40:21;;;;;;;17.30;11.80;;;;;;;6.27;49.08;101539.13;4987883;28;106295;-76
2022/03/15 01:42:47;;;;;;;23.65;13.02;;;;;;;6.23;48.98;101538.50;4987783;28;105873;-75
2022/03/15 01:45:12;;;;;;;19.13;11.48;;;;;;;6.17;49.33;101532.81;4988585;28;105949;-76
2022/03/15 01:47:39;;;;;;;21.58;12.07;;;;;;;6.15;49.20;101537.34;4987972;28;106295;-77
2022/03/15 01:50:05;;;;;;;22.60;13.05;;;;;;;6.12;49.62;101540.22;4987314;28;106162;-75
2022/03/15 01:52:31;;;;;;;20.38;12.75;;;;;;;6.14;49.66;101522.41;4987373;28;106065;-74
2022/03/15 01:54:56;;;;;;;37.88;21.15;;;;;;;6.13;49.71;101526.03;4988315;28;106063;-80
2022/03/15 01:57:23;;;;;;;24.65;14.35;;;;;;;6.13;50.01;101528.69;4986344;28;106002;-78
2022/03/15 01:59:48;;;;;;;22.23;12.82;;;;;;;6.12;49.87;101532.28;4987240;28;105957;-77
2022/03/15 02:02:14;;;;;;;22.05;12.60;;;;;;;6.08;50.00;101535.16;4987471;28;106120;-74
2022/03/15 02:04:39;;;;;;;24.10;12.60;;;;;;;6.04;49.76;101549.53;4988138;28;106227;-74
2022/03/15 02:07:09;;;;;;;21.13;12.80;;;;;;;6.01;50.23;101533.88;4987625;28;106220;-76
2022/03/15 02:09:35;;;;;;;24.42;13.27;;;;;;;6.01;49.96;101538.31;4987226;28;106125;-76
2022/03/15 02:12:01;;;;;;;23.50;12.95;;;;;;;6.01;50.27;101527.75;4987272;28;106111;-76
2022/03/15 02:14:26;;;;;;;20.95;12.07;;;;;;;6.01;50.45;101528.56;4988416;28;105964;-76
2022/03/15 02:16:52;;;;;;;20.70;11.57;;;;;;;6.00;50.17;101526.03;4987486;28;106197;-76
2022/03/15 02:19:17;;;;;;;21.00;12.10;;;;;;;5.97;49.76;101520.94;4987477;28;106465;-76
2022/03/15 02:21:43;;;;;;;18.50;11.25;;;;;;;5.93;50.19;101529.09;4987344;28;105932;-75
2022/03/15 02:24:08;;;;;;;21.10;12.82;;;;;;;5.92;50.59;101529.22;4988991;28;106307;-77
2022/03/15 02:26:33;;;;;;;28.40;14.80;;;;;;;5.89;50.23;101526.75;4990873;28;106166;-78
2022/03/15 02:28:59;;;;;;;23.05;14.95;;;;;;;5.85;50.10;101535.84;4990742;28;105842;-78
2022/03/15 02:31:25;;;;;;;24.00;13.20;;;;;;;5.73;50.47;101534.94;4989897;28;118835;-77
2022/03/15 02:33:50;;;;;;;24.27;14.48;;;;;;;5.63;50.58;101529.44;4991149;28;105942;-78
2022/03/15 02:36:16;;;;;;;26.92;12.75;;;;;;;5.55;50.69;101532.59;4990638;28;106205;-75
2022/03/15 02:38:42;;;;;;;22.15;12.05;;;;;;;5.50;50.95;101534.69;4990242;28;106776;-78
2022/03/15 02:41:08;;;;;;;15.80;9.75;;;;;;;5.39;50.71;101524.84;4990599;28;105873;-74
2022/03/15 02:43:33;;;;;;;15.93;10.43;;;;;;;5.23;50.82;101521.53;4991679;28;106040;-75
2022/03/15 02:45:58;;;;;;;17.50;9.70;;;;;;;5.11;51.28;101506.50;4990677;28;106663;-78
2022/03/15 02:48:24;;;;;;;19.35;10.02;;;;;;;5.05;51.67;101513.06;4990459;28;105978;-77
2022/03/15 02:50:49;;;;;;;17.67;10.00;;;;;;;4.93;51.59;101512.06;4990029;28;106076;-74
2022/03/15 02:53:16;;;;;;;23.45;11.18;;;;;;;4.81;51.43;101512.88;4990996;28;105948;-74
2022/03/15 02:55:41;;;;;;;19.80;11.00;;;;;;;4.63;52.17;101518.38;4990615;28;105905;-76
2022/03/15 02:58:06;;;;;;;19.88;10.63;;;;;;;4.49;52.42;101518.44;4989723;28;121339;-76
2022/03/15 03:00:32;;;;;;;16.33;10.15;;;;;;;4.35;52.91;101520.16;4989924;28;114015;-78
2022/03/15 03:02:57;;;;;;;19.98;10.90;;;;;;;4.23;52.93;101524.41;4990903;28;106487;-78
2022/03/15 03:05:23;;;;;;;18.33;10.45;;;;;;;4.10;53.41;101520.88;4990960;28;106589;-78
2022/03/15 03:07:49;;;;;;;16.58;11.10;;;;;;;3.99;53.66;101516.25;4990588;28;106278;-78
2022/03/15 03:10:17;;;;;;;21.63;10.30;;;;;;;3.88;54.02;101513.41;4989871;28;107001;-78
2022/03/15 03:12:47;;;;;;;19.17;11.00;;;;;;;3.77;54.05;101521.13;4991078;28;106105;-77
2022/03/15 03:15:13;;;;;;;21.77;11.13;;;;;;;3.67;54.33;101529.59;4990385;28;105992;-75
2022/03/15 03:17:42;;;;;;;16.92;9.85;;;;;;;3.60;54.63;101525.66;4990187;28;106391;-75
2022/03/15 03:20:09;;;;;;;18.25;9.60;;;;;;;3.51;54.54;101529.69;4990002;28;106093;-75
2022/03/15 03:22:36;;;;;;;18.38;9.75;;;;;;;3.44;54.65;101532.78;4991204;28;106021;-75
2022/03/15 03:25:05;;;;;;;19.45;10.20;;;;;;;3.40;54.97;101537.34;4990159;28;106113;-74
2022/03/15 03:27:31;;;;;;;16.95;9.57;;;;;;;3.45;55.38;101545.00;4989506;28;109087;-75
2022/03/15 03:30:00;;;;;;;21.30;10.82;;;;;;;3.52;55.70;101541.91;4989684;28;105898;-76
2022/03/15 03:32:25;;;;;;;21.20;10.40;;;;;;;3.65;55.79;101536.75;4990503;28;105953;-75
2022/03/15 03:34:52;;;;;;;20.70;11.38;;;;;;;3.79;55.79;101538.56;4989756;28;106178;-76
2022/03/15 03:37:18;;;;;;;20.27;11.23;;;;;;;3.93;56.03;101544.78;4988885;28;106597;-75
2022/03/15 03:39:44;;;;;;;19.00;10.88;;;;;;;4.01;55.82;101546.00;4989399;28;106382;-76
2022/03/15 03:42:09;;;;;;;17.77;11.73;;;;;;;4.07;55.79;101542.13;4989955;28;105994;-77
2022/03/15 03:44:36;;;;;;;16.33;9.60;;;;;;;4.14;56.28;101546.09;4989645;28;105802;-74
2022/03/15 03:47:04;;;;;;;19.83;9.95;;;;;;;4.18;56.37;101544.97;4989417;28;106280;-76
2022/03/15 03:49:31;;;;;;;13.48;8.70;;;;;;;4.20;56.21;101558.06;4989831;28;105816;-77
2022/03/15 03:51:58;;;;;;;17.00;10.55;;;;;;;4.17;56.48;101547.69;4989823;28;106121;-78
2022/03/15 03:54:23;;;;;;;16.98;12.45;;;;;;;4.15;56.14;101547.78;4989467;28;106294;-78
2022/03/15 03:56:48;;;;;;;18.65;12.85;;;;;;;4.14;56.40;101554.03;4988852;28;105992;-76
2022/03/15 03:59:14;;;;;;;13.93;9.60;;;;;;;4.15;56.43;101552.22;4988612;28;120755;-76
2022/03/15 04:01:40;;;;;;;14.43;9.15;;;;;;;4.13;56.98;101554.09;4990304;28;105981;-76
2022/03/15 04:04:06;;;;;;;12.38;8.77;;;;;;;4.12;57.06;101545.34;4989531;28;105802;-78
2022/03/15 04:06:32;;;;;;;12.75;6.72;;;;;;;4.09;57.30;101540.25;4989355;28;106885;-77
2022/03/15 04:08:59;;;;;;;14.57;7.82;;;;;;;4.10;57.55;101535.81;4989742;28;106499;-77
2022/03/15 04:11:24;;;;;;;12.68;6.28;;;;;;;4.10;57.75;101546.38;4990500;28;106043;-76
2022/03/15 04:13:50;;;;;;;12.88;6.45;;;;;;;4.13;58.20;101546.19;4989645;28;106234;-76
2022/03/15 04:16:16;;;;;;;13.65;7.72;;;;;;;4.14;58.34;101543.47;4989194;28;105937;-75
2022/03/15 04:18:41;;;;;;;19.17;6.88;;;;;;;4.15;58.10;101549.59;4988744;28;116995;-75
2022/03/15 04:21:07;;;;;;;9.13;6.03;;;;;;;4.13;58.19;101543.53;4990004;28;105968;-75
2022/03/15 04:23:32;;;;;;;9.82;6.43;;;;;;;4.14;58.23;101537.34;4989456;28;106025;-75
2022/03/15 04:25:58;;;;;;;10.27;6.15;;;;;;;4.14;58.46;101537.34;4988708;28;105962;-76
2022/03/15 04:28:23;;;;;;;12.15;5.93;;;;;;;4.17;58.83;101531.84;4988113;28;106169;-76
2022/03/15 04:30:48;;;;;;;18.17;6.88;;;;;;;4.21;58.88;101542.13;4988496;28;105960;-76
2022/03/15 04:33:14;;;;;;;12.80;7.70;;;;;;;4.22;59.06;101541.19;4988372;28;106182;-75
2022/03/15 04:35:40;;;;;;;16.08;6.25;;;;;;;4.21;58.99;101542.13;4988088;28;107758;-77
2022/03/15 04:38:05;;;;;;;10.50;6.57;;;;;;;4.24;59.00;101546.38;4988289;28;106020;-75
2022/03/15 04:40:31;;;;;;;11.25;6.38;;;;;;;4.24;59.27;101547.22;4988994;28;106369;-75
2022/03/15 04:42:57;;;;;;;12.75;6.00;;;;;;;4.30;59.33;101537.22;4988325;28;106462;-76
2022/03/15 04:45:24;;;;;;;9.60;5.40;;;;;;;4.36;59.57;101547.38;4988002;28;106895;-74
2022/03/15 04:47:49;;;;;;;10.98;5.78;;;;;;;4.36;59.46;101547.38;4987414;28;106317;-76
2022/03/15 04:50:15;;;;;;;10.55;6.03;;;;;;;4.36;59.48;101552.66;4988803;28;106074;-76
2022/03/15 04:52:40;;;;;;;8.63;6.35;;;;;;;4.36;59.40;101558.81;4988919;28;106230;-77
2022/03/15 04:55:06;;;;;;;11.95;7.05;;;;;;;4.37;59.74;101549.94;4987401;28;106102;-76
2022/03/15 04:57:32;;;;;;;11.57;6.60;;;;;;;4.40;59.48;101555.03;4988090;28;105898;-77
2022/03/15 04:59:57;;;;;;;9.60;5.55;;;;;;;4.45;60.23;101556.53;4988454;28;105973;-77
2022/03/15 05:02:24;;;;;;;10.32;6.50;;;;;;;4.48;59.61;101566.88;4988965;28;105883;-78
2022/03/15 05:04:50;;;;;;;10.40;6.43;;;;;;;4.49;59.66;101571.22;4988065;28;105960;-78
2022/03/15 05:07:15;;;;;;;10.80;6.18;;;;;;;4.48;59.68;101566.88;4986392;28;107223;-77
2022/03/15 05:11:05;;;;;;;16.08;6.78;;;;;;;4.42;59.80;101565.47;4988999;28;105840;-75
2022/03/15 05:12:26;;;;;;;9.18;6.22;;;;;;;4.42;60.02;101556.72;4988035;28;107254;-77
2022/03/15 06:21:44;;;;;;;15.00;6.35;;;;;;;4.89;59.26;101555.47;5041145;27;1318188;-79
2022/03/15 06:24:10;;;;;;;11.00;6.47;;;;;;;4.95;59.67;101555.06;5066338;27;105910;-77
2022/03/15 06:26:37;;;;;;;18.15;7.75;;;;;;;5.01;59.88;101549.38;5065509;27;106145;-75
2022/03/15 06:29:03;;;;;;;18.67;6.72;;;;;;;5.14;60.12;101545.94;5065598;27;106262;-76
2022/03/15 06:31:33;;;;;;;11.30;6.20;;;;;;;5.25;60.53;101546.91;5064998;27;106034;-79
2022/03/15 06:33:59;;;;;;;22.92;9.90;;;;;;;5.41;60.31;101546.75;5066132;27;106118;-79
2022/03/15 06:36:25;;;;;;;33.15;12.13;;;;;;;5.63;60.25;101547.94;5065368;27;106418;-76
2022/03/15 06:38:50;;;;;;;35.50;14.23;;;;;;;5.88;60.39;101543.59;5063971;27;105843;-73
2022/03/15 06:41:16;;;;;;;22.42;9.73;;;;;;;6.10;60.21;101538.53;5063032;27;106341;-75
2022/03/15 06:43:42;;;;;;;25.75;10.55;;;;;;;6.36;60.22;101530.53;5065799;27;106353;-77
2022/03/15 06:46:08;;;;;;;24.55;9.25;;;;;;;6.62;60.02;101522.50;5064838;27;106331;-78
2022/03/15 06:48:34;;;;;;;12.07;7.57;;;;;;;6.91;59.75;101525.66;5064507;27;106262;-77
2022/03/15 06:51:00;;;;;;;13.65;6.95;;;;;;;7.18;59.59;101529.03;5055529;27;106333;-76
2022/03/15 06:53:25;;;;;;;12.15;7.30;;;;;;;7.42;59.36;101527.19;5026995;27;105957;-78
2022/03/15 06:55:51;;;;;;;12.82;7.72;;;;;;;7.68;59.40;101527.00;5044136;27;106235;-76
2022/03/15 06:58:17;;;;;;;13.48;8.35;;;;;;;7.97;58.46;101531.84;5044301;27;106015;-83
2022/03/15 07:00:43;;;;;;;12.40;6.90;;;;;;;8.19;58.32;101530.13;5044748;27;105921;-79
2022/03/15 07:03:08;;;;;;;16.50;7.70;;;;;;;8.42;58.21;101542.44;5045495;27;106249;-78
2022/03/15 07:05:33;;;;;;;16.08;8.40;;;;;;;8.61;57.31;101531.19;5044895;27;105991;-77
2022/03/15 07:07:59;;;;;;;13.20;7.38;;;;;;;8.80;56.77;101530.53;5044000;27;129729;-76
2022/03/15 07:10:24;;;;;;;15.57;7.97;;;;;;;8.99;56.57;101534.31;5044789;27;107256;-80
2022/03/15 07:12:49;;;;;;;14.95;7.57;;;;;;;9.18;56.55;101527.50;5026707;27;106369;-79
2022/03/15 07:15:16;;;;;;;12.95;7.32;;;;;;;9.35;55.68;101539.34;5044088;27;111930;-76
2022/03/15 07:17:53;;;;;;;15.90;7.28;;;;;;;9.54;55.45;101538.66;5043566;27;106067;-77
2022/03/15 07:20:19;;;;;;;14.00;7.60;;;;;;;9.74;55.58;101529.81;5026076;27;109285;-78
2022/03/15 07:22:45;;;;;;;14.65;7.60;;;;;;;10.00;55.21;101540.00;5045258;27;106112;-78
2022/03/15 07:25:11;;;;;;;18.50;8.88;;;;;;;10.28;54.75;101534.97;5043438;27;106309;-78
2022/03/15 07:27:36;;;;;;;14.50;7.78;;;;;;;10.46;53.93;101546.66;5044044;27;106099;-76
2022/03/15 07:30:03;;;;;;;14.23;7.53;;;;;;;10.64;53.69;101548.66;5044406;27;105895;-79
2022/03/15 07:32:28;;;;;;;19.13;7.35;;;;;;;10.88;52.86;101547.44;5034867;27;105973;-78
2022/03/15 07:34:53;;;;;;;12.68;7.00;;;;;;;11.08;52.71;101534.97;5030771;28;106268;-76
2022/03/15 07:37:19;;;;;;;18.65;8.05;;;;;;;11.34;52.14;101529.88;5029988;28;124587;-76
2022/03/15 07:39:45;;;;;;;11.02;6.63;;;;;;;11.47;51.57;101540.28;5029162;28;106328;-74
2022/03/15 07:42:11;;;;;;;15.40;7.72;;;;;;;11.55;50.95;101532.38;5031098;28;106067;-77
2022/03/15 07:44:37;;;;;;;17.70;10.02;;;;;;;11.69;51.08;101533.75;5030770;28;106223;-77
2022/03/15 07:47:02;;;;;;;12.80;7.28;;;;;;;11.84;50.37;101534.13;5029289;28;106978;-78
2022/03/15 07:49:28;;;;;;;12.40;6.90;;;;;;;11.92;49.78;101538.72;5030592;28;105901;-75
2022/03/15 07:51:53;;;;;;;10.50;6.75;;;;;;;12.09;49.50;101537.16;5031545;27;106102;-78
2022/03/15 07:54:18;;;;;;;17.90;7.47;;;;;;;12.19;48.69;101535.28;5030775;28;106282;-78
2022/03/15 07:56:45;;;;;;;14.70;7.30;;;;;;;12.38;49.36;101534.34;5012309;28;107819;-81
2022/03/15 07:59:10;;;;;;;14.45;8.05;;;;;;;12.86;50.05;101527.84;5030903;28;105964;-76
2022/03/15 08:01:36;;;;;;;12.15;7.32;;;;;;;13.25;48.71;101532.03;5031153;28;106794;-76
2022/03/15 08:04:01;;;;;;;16.13;8.38;;;;;;;13.50;47.77;101525.03;5030236;28;106187;-79
2022/03/15 08:06:27;;;;;;;12.43;7.85;;;;;;;13.54;46.80;101525.56;5030171;28;106790;-75
2022/03/15 08:08:57;;;;;;;14.35;7.82;;;;;;;13.73;46.70;101521.84;5029815;28;105831;-75
2022/03/15 08:11:26;;;;;;;17.67;7.97;;;;;;;14.03;47.09;101525.00;5030398;28;106619;-77
2022/03/15 08:13:55;;;;;;;18.48;7.72;;;;;;;14.74;47.76;101524.78;5029555;28;106320;-82
2022/03/15 08:16:24;;;;;;;17.77;8.02;;;;;;;15.43;46.19;101522.59;5029906;28;105885;-83
2022/03/15 08:18:51;;;;;;;16.38;6.95;;;;;;;16.15;45.77;101516.38;5030074;28;106426;-80
2022/03/15 08:21:17;;;;;;;15.55;7.38;;;;;;;16.70;42.94;101513.75;5030744;28;106092;-80
2022/03/15 08:23:43;;;;;;;16.17;6.68;;;;;;;16.82;43.12;101508.78;5030543;28;106056;-81
2022/03/15 08:26:09;;;;;;;12.05;6.22;;;;;;;17.25;41.84;101517.25;5030149;28;106312;-78
2022/03/15 08:28:35;;;;;;;20.20;7.40;;;;;;;17.75;41.73;101507.63;5029723;28;105840;-78
2022/03/15 08:31:01;;;;;;;13.15;6.95;;;;;;;18.40;40.53;101517.84;5030669;28;106148;-79
2022/03/15 08:33:26;;;;;;;15.57;6.75;;;;;;;18.63;38.61;101514.13;5029892;28;106160;-77
2022/03/15 08:35:52;;;;;;;10.65;5.47;;;;;;;18.92;37.82;101513.22;5028300;28;106162;-78
2022/03/15 08:38:17;;;;;;;9.45;5.93;;;;;;;19.54;36.43;101506.22;5029212;28;106107;-77
2022/03/15 08:40:43;;;;;;;12.40;6.88;;;;;;;21.08;35.78;101506.81;5029946;28;106449;-78
2022/03/15 08:43:09;;;;;;;12.23;6.97;;;;;;;23.14;33.54;101498.13;5028559;27;106251;-77
2022/03/15 08:45:35;;;;;;;17.75;6.97;;;;;;;24.93;30.20;101495.38;5028070;28;106147;-77
2022/03/15 08:48:01;;;;;;;15.70;6.75;;;;;;;26.39;27.52;101497.44;5029075;28;106866;-76
2022/03/15 08:50:26;;;;;;;12.05;6.88;;;;;;;27.45;25.46;101488.59;5029295;27;106065;-73
2022/03/15 08:52:52;;;;;;;16.58;7.40;;;;;;;28.70;24.54;101483.47;5029165;28;106363;-76
2022/03/15 08:55:18;;;;;;;12.60;7.30;;;;;;;29.50;22.19;101482.69;5028379;28;106773;-76
2022/03/15 08:57:44;;;;;;;10.82;6.65;;;;;;;30.46;22.07;101488.00;5028678;28;106187;-72
2022/03/15 09:00:11;;;;;;;15.55;8.00;;;;;;;31.88;21.01;101492.78;5029553;28;105911;-75
2022/03/15 09:02:37;;;;;;;13.57;8.45;;;;;;;32.60;19.63;101486.81;5029181;28;106195;-74
2022/03/15 09:05:02;;;;;;;13.95;8.32;;;;;;;33.01;19.00;101477.38;5029109;28;105877;-78
2022/03/15 09:07:30;;;;;;;13.13;8.55;;;;;;;33.05;18.96;101478.44;5029232;28;106263;-78
2022/03/15 09:09:55;;;;;;;10.50;7.80;;;;;;;33.13;18.15;101477.00;5029611;28;105978;-81
2022/03/15 09:12:21;;;;;;;11.40;8.50;;;;;;;33.23;18.26;101486.00;5029630;28;106247;-76
2022/03/15 09:14:46;;;;;;;16.08;8.60;;;;;;;32.96;17.46;101489.31;5028963;28;107019;-78
2022/03/15 09:17:12;;;;;;;18.08;9.05;;;;;;;32.76;17.49;101481.22;5028999;28;106577;-82
2022/03/15 09:19:40;;;;;;;13.45;8.45;;;;;;;32.90;17.15;101485.78;5010747;28;105970;-79
2022/03/15 09:22:07;;;;;;;10.80;8.32;;;;;;;32.92;17.53;101481.88;5029136;28;106018;-78
2022/03/15 09:24:34;;;;;;;13.00;7.88;;;;;;;33.11;17.13;101479.22;5028815;28;105747;-78
2022/03/15 09:27:00;;;;;;;13.52;8.68;;;;;;;34.00;16.49;101475.19;5028784;28;106119;-81
2022/03/15 09:29:26;;;;;;;11.40;7.88;;;;;;;35.67;15.58;101482.00;5029477;28;106021;-77
2022/03/15 09:31:51;;;;;;;13.88;9.23;;;;;;;37.35;14.69;101474.63;5029057;28;106362;-75
2022/03/15 09:34:21;;;;;;;12.27;8.50;;;;;;;38.78;13.75;101475.22;5028345;28;106549;-80
2022/03/15 09:36:46;;;;;;;;;;;;;;;38.76;13.28;101478.34;5028702;28;106024;-75
2022/03/15 09:39:11;;;;;;;15.75;11.27;;;;;;;38.65;13.46;101472.28;5029163;28;106063;-78
2022/03/15 09:41:39;;;;;;;15.65;9.65;;;;;;;37.97;13.22;101469.22;5027983;28;106341;-75
2022/03/15 09:44:07;;;;;;;12.30;9.55;;;;;;;38.04;12.95;101464.81;5027868;28;106798;-76
2022/03/15 09:46:40;;;;;;;13.20;9.55;;;;;;;38.07;12.74;101458.59;5028387;28;105959;-77
2022/03/15 09:49:07;;;;;;;14.50;9.27;;;;;;;38.51;12.64;101454.94;5029566;28;105947;-80
2022/03/15 09:51:34;;;;;;;13.43;10.27;;;;;;;38.75;12.09;101451.66;5028539;27;106110;-80
2022/03/15 09:54:02;;;;;;;14.15;11.48;;;;;;;38.60;12.11;101450.19;5027834;28;106054;-81
2022/03/15 09:56:28;;;;;;;15.07;12.35;;;;;;;38.53;12.22;101447.09;5027975;28;106076;-84
2022/03/15 09:58:53;;;;;;;18.63;11.95;;;;;;;38.77;12.17;101446.56;5028852;28;106035;-80
2022/03/15 10:01:19;;;;;;;15.30;10.38;;;;;;;38.89;12.02;101451.44;5028413;28;106510;-80
2022/03/15 10:03:48;;;;;;;20.95;11.65;;;;;;;38.80;11.56;101442.31;5027794;28;106658;-83
2022/03/15 10:06:14;;;;;;;15.25;10.82;;;;;;;38.46;11.51;101442.03;5028089;28;105817;-77
2022/03/15 10:08:40;;;;;;;13.55;9.95;;;;;;;38.17;11.89;101431.59;5028263;28;106080;-79
2022/03/15 10:11:05;;;;;;;14.40;10.30;;;;;;;37.16;12.31;101438.75;5028490;28;106172;-77
2022/03/15 10:13:31;;;;;;;14.70;9.93;;;;;;;34.76;13.86;101430.81;5027599;28;106019;-82
2022/03/15 10:15:59;;;;;;;12.13;10.23;;;;;;;35.17;13.49;101424.56;5027998;28;105879;-80
2022/03/15 10:18:25;;;;;;;12.82;9.35;;;;;;;36.33;13.00;101417.88;5027946;28;105976;-81
2022/03/15 10:20:51;;;;;;;14.45;10.13;;;;;;;38.63;11.47;101418.91;5027584;28;106290;-81
2022/03/15 10:23:18;;;;;;;16.58;9.93;;;;;;;39.94;11.01;101425.75;5027531;28;106528;-78
2022/03/15 10:25:49;;;;;;;15.93;9.75;;;;;;;40.63;10.43;101411.50;5027637;28;106009;-78
2022/03/15 10:28:15;;;;;;;10.93;8.85;;;;;;;40.98;10.23;101409.09;5028765;28;105962;-78
2022/03/15 10:30:42;;;;;;;13.00;9.20;;;;;;;41.20;9.79;101412.59;5026886;28;105956;-78
2022/03/15 10:33:07;;;;;;;13.07;10.95;;;;;;;42.06;9.67;101404.03;5026468;28;106272;-76
2022/03/15 10:35:41;;;;;;;14.25;10.23;;;;;;;42.59;9.03;101397.44;5027610;28;107096;-81
2022/03/15 10:38:08;;;;;;;11.70;9.02;;;;;;;42.69;8.95;101407.28;5027462;28;106426;-77
2022/03/15 10:40:35;;;;;;;12.15;8.77;;;;;;;43.24;8.76;101396.25;5028501;28;106252;-80
2022/03/15 10:43:06;;;;;;;15.38;8.75;;;;;;;43.72;8.10;101402.50;5027249;28;106700;-83
2022/03/15 10:45:34;;;;;;;15.18;9.55;;;;;;;43.96;8.25;101392.16;5028526;28;105942;-81
2022/03/15 10:48:00;;;;;;;13.17;8.43;;;;;;;43.90;8.34;101390.84;5028814;28;106714;-80
2022/03/15 10:50:26;;;;;;;11.07;7.30;;;;;;;44.07;8.02;101390.41;5027416;27;106162;-82
2022/03/15 10:52:53;;;;;;;10.02;7.07;;;;;;;43.86;7.61;101378.72;5027037;28;106251;-77
2022/03/15 10:55:22;;;;;;;9.07;6.55;;;;;;;43.38;7.96;101371.31;5027240;28;105899;-75
2022/03/15 10:57:51;;;;;;;10.85;6.70;;;;;;;43.04;7.96;101373.72;5026834;28;106139;-81
2022/03/15 11:00:19;;;;;;;8.60;6.20;;;;;;;42.12;7.73;101379.38;5026793;28;106279;-78
2022/03/15 11:02:48;;;;;;;9.20;7.07;;;;;;;39.79;8.56;101378.97;5025871;28;106998;-78
2022/03/15 11:05:23;;;;;;;;;;;;;;;38.64;8.94;101369.63;5026820;28;106120;-76
2022/03/15 11:07:49;;;;;;;11.48;6.80;;;;;;;37.48;9.93;101367.25;5030639;27;106033;-78
2022/03/15 11:10:14;;;;;;;8.00;6.20;;;;;;;37.45;9.78;101364.31;5030210;28;118257;-76
2022/03/15 11:13:07;;;;;;;12.98;7.63;;;;;;;37.74;9.84;101361.72;5030881;28;105901;-76
2022/03/15 11:15:36;;;;;;;12.25;7.18;;;;;;;38.33;9.74;101359.56;5030629;28;106276;-77
2022/03/15 11:18:04;;;;;;;11.77;6.30;;;;;;;38.73;9.74;101362.88;5031202;28;105974;-76
2022/03/15 11:20:35;;;;;;;10.35;6.43;;;;;;;39.19;9.74;101351.19;5029329;28;106265;-75
2022/03/15 11:23:02;;;;;;;11.55;6.20;;;;;;;40.40;8.82;101347.69;5029739;28;106288;-79
2022/03/15 11:25:56;;;;;;;9.20;6.20;;;;;;;41.58;8.33;101341.47;5028232;28;106664;-80
2022/03/15 11:28:30;;;;;;;9.38;6.50;;;;;;;41.84;8.10;101343.03;5008093;28;106519;-75
2022/03/15 11:30:56;;;;;;;8.77;6.43;;;;;;;41.98;8.10;101340.63;5016845;28;106006;-79
2022/03/15 11:33:23;;;;;;;7.28;6.05;;;;;;;41.51;8.24;101342.06;5023936;28;105856;-78
2022/03/15 11:35:48;;;;;;;10.05;6.15;;;;;;;40.70;8.58;101328.78;5029291;28;106162;-78
2022/03/15 11:38:14;;;;;;;8.98;5.65;;;;;;;40.74;8.69;101328.91;5030174;28;105904;-79
2022/03/15 11:40:41;;;;;;;9.52;6.18;;;;;;;40.39;8.34;101330.09;5029347;28;106358;-77
2022/03/15 11:43:13;;;;;;;9.10;5.93;;;;;;;39.40;8.68;101320.56;5029909;28;106171;-83
2022/03/15 11:45:55;;;;;;;8.90;5.95;;;;;;;38.04;9.14;101322.13;5030139;28;106160;-82
2022/03/15 11:48:44;;;;;;;9.48;5.30;;;;;;;36.81;10.22;101310.06;5030423;28;106098;-80
2022/03/15 11:51:26;;;;;;;9.30;6.35;;;;;;;36.48;10.07;101299.31;5029465;28;106025;-76
2022/03/15 11:54:06;;;;;;;9.30;5.97;;;;;;;36.06;10.38;101294.00;5029483;28;106239;-78
2022/03/15 11:56:32;;;;;;;6.88;5.13;;;;;;;36.13;10.76;101277.75;5028741;28;105989;-79
2022/03/15 11:58:58;;;;;;;12.15;6.25;;;;;;;36.90;10.13;101288.72;5029505;28;105902;-85
2022/03/15 12:01:24;;;;;;;12.52;6.20;;;;;;;36.89;10.45;101281.50;5028949;28;106064;-80
2022/03/15 12:03:56;;;;;;;9.02;5.38;;;;;;;37.09;10.01;101269.78;5026825;28;106057;-76
2022/03/15 12:06:26;;;;;;;12.98;5.70;;;;;;;36.50;10.40;101270.09;5028219;28;106052;-78
2022/03/15 12:08:57;;;;;;;9.02;6.07;;;;;;;36.38;10.52;101272.66;5027501;28;106080;-74
2022/03/15 12:11:37;;;;;;;9.05;6.03;;;;;;;36.38;10.41;101259.59;5028332;28;106397;-75
2022/03/15 12:14:06;;;;;;;12.32;7.00;;;;;;;36.01;10.73;101264.47;5028348;28;106636;-75
2022/03/15 12:16:45;;;;;;;10.48;5.82;;;;;;;35.71;10.82;101260.50;5027998;28;106086;-71